createdAt,value
2019-05-03T00:02:41.897Z,14.43
2019-05-03T00:05:32.314Z,16.13
2019-05-03T00:08:06.920Z,17.90
2019-05-03T00:10:37.648Z,18.03
2019-05-03T00:13:07.647Z,18.97
2019-05-03T00:15:52.320Z,24.50
2019-05-03T00:18:22.226Z,20.03
2019-05-03T00:20:52.680Z,20.63
2019-05-03T00:23:22.853Z,19.70
2019-05-03T00:25:52.503Z,22.43
2019-05-03T00:28:21.890Z,22.70
2019-05-03T00:30:52.244Z,21.70
2019-05-03T00:33:22.429Z,20.93
2019-05-03T00:36:11.688Z,22.90
2019-05-03T00:38:41.911Z,22.40
2019-05-03T00:41:12.183Z,22.87
2019-05-03T00:43:42.368Z,23.40
2019-05-03T00:46:12.614Z,24.03
2019-05-03T00:48:43.033Z,21.13
2019-05-03T00:51:14.197Z,21.40
2019-05-03T00:53:43.604Z,22.00
2019-05-03T00:56:13.012Z,21.97
2019-05-03T00:58:53.019Z,19.90
2019-05-03T01:01:24.133Z,27.90
2019-05-03T01:03:53.716Z,23.23
2019-05-03T01:06:23.096Z,23.90
2019-05-03T01:08:53.549Z,22.37
2019-05-03T01:11:24.163Z,22.33
2019-05-03T01:13:53.467Z,21.93
2019-05-03T01:16:23.398Z,21.83
2019-05-03T01:18:52.730Z,19.87
2019-05-03T01:21:26.583Z,20.90
2019-05-03T01:23:55.959Z,19.83
2019-05-03T01:26:25.279Z,19.07
2019-05-03T01:28:54.590Z,18.70
2019-05-03T01:31:25.256Z,17.60
2019-05-03T01:33:54.615Z,19.63
2019-05-03T01:36:23.980Z,21.27
2019-05-03T01:38:54.283Z,16.13
2019-05-03T01:41:24.810Z,19.90
2019-05-03T01:43:54.318Z,20.23
2019-05-03T01:46:23.800Z,19.33
2019-05-03T01:49:12.295Z,18.73
2019-05-03T01:51:58.629Z,19.30
2019-05-03T01:54:28.132Z,20.70
2019-05-03T01:56:59.196Z,21.10
2019-05-03T01:59:28.692Z,24.97
2019-05-03T02:02:12.557Z,24.07
2019-05-03T02:05:06.663Z,20.60
2019-05-03T02:07:36.013Z,22.23
2019-05-03T02:10:05.710Z,21.80
2019-05-03T02:12:35.091Z,20.70
2019-05-03T02:15:04.624Z,19.93
2019-05-03T02:17:33.969Z,22.37
2019-05-03T02:20:03.347Z,20.13
2019-05-03T02:22:32.731Z,16.57
2019-05-03T02:25:02.041Z,18.10
2019-05-03T02:27:32.575Z,15.93
2019-05-03T02:30:03.215Z,16.10
2019-05-03T02:32:33.204Z,15.23
2019-05-03T02:35:02.951Z,15.97
2019-05-03T02:37:33.051Z,14.77
2019-05-03T02:40:04.175Z,16.60
2019-05-03T02:42:35.600Z,11.60
2019-05-03T02:45:06.453Z,16.50
2019-05-03T02:47:47.163Z,13.27
2019-05-03T02:50:19.333Z,13.70
2019-05-03T02:52:48.671Z,12.10
2019-05-03T02:55:18.255Z,11.77
2019-05-03T02:57:56.471Z,12.70
2019-05-03T03:01:02.028Z,9.40
2019-05-03T03:03:32.595Z,10.20
2019-05-03T03:06:06.725Z,7.37
2019-05-03T03:08:37.838Z,8.00
2019-05-03T03:11:09.259Z,7.60
2019-05-03T03:13:39.477Z,7.47
2019-05-03T03:16:09.900Z,6.40
2019-05-03T03:18:40.467Z,6.53
2019-05-03T03:21:16.010Z,7.00
2019-05-03T03:23:56.193Z,7.43
2019-05-03T03:26:39.246Z,5.53
2019-05-03T03:29:05.689Z,6.00
2019-05-03T03:31:51.102Z,7.13
2019-05-03T03:34:27.521Z,7.33
2019-05-03T03:37:04.401Z,8.40
2019-05-03T03:39:26.748Z,6.67
2019-05-03T03:41:57.287Z,8.97
2019-05-03T03:44:27.717Z,8.97
2019-05-03T03:46:58.780Z,12.27
2019-05-03T03:49:29.737Z,9.00
2019-05-03T03:52:00.469Z,10.97
2019-05-03T03:54:35.521Z,9.57
2019-05-03T03:57:08.230Z,10.90
2019-05-03T03:59:37.174Z,9.30
2019-05-03T04:02:06.663Z,8.63
2019-05-03T04:04:36.134Z,15.67
2019-05-03T04:07:06.612Z,10.57
2019-05-03T04:09:36.804Z,14.17
2019-05-03T04:12:06.544Z,10.17
2019-05-03T04:15:07.371Z,12.13
2019-05-03T04:17:58.530Z,16.37
2019-05-03T04:20:35.979Z,13.67
2019-05-03T04:23:05.912Z,14.23
2019-05-03T04:25:38.111Z,13.83
2019-05-03T04:28:09.791Z,11.80
2019-05-03T04:30:39.216Z,12.10
2019-05-03T04:33:08.561Z,14.83
2019-05-03T04:35:37.908Z,13.07
2019-05-03T04:38:07.249Z,16.03
2019-05-03T04:40:36.649Z,12.63
2019-05-03T04:43:06.366Z,15.27
2019-05-03T04:45:36.750Z,18.03
2019-05-03T04:48:06.572Z,14.70
2019-05-03T04:50:39.311Z,14.70
2019-05-03T04:53:08.660Z,14.07
2019-05-03T04:55:41.227Z,14.43
2019-05-03T04:58:10.672Z,15.33
2019-05-03T05:00:39.979Z,13.47
2019-05-03T05:03:09.657Z,17.87
2019-05-03T05:05:39.025Z,8.77
2019-05-03T05:08:08.315Z,9.43
2019-05-03T05:10:37.671Z,6.37
2019-05-03T05:13:06.971Z,4.60
2019-05-03T05:15:37.363Z,5.27
2019-05-03T05:18:22.440Z,6.10
2019-05-03T05:20:59.656Z,8.00
2019-05-03T05:23:32.985Z,5.53
2019-05-03T05:26:16.685Z,5.27
2019-05-03T05:28:54.883Z,5.50
2019-05-03T05:31:25.423Z,4.37
2019-05-03T05:33:54.879Z,4.10
2019-05-03T05:36:24.693Z,6.27
2019-05-03T05:38:55.229Z,3.27
2019-05-03T05:41:24.665Z,5.83
2019-05-03T05:43:55.013Z,7.53
2019-05-03T05:46:26.482Z,3.97
2019-05-03T05:48:56.208Z,3.63
2019-05-03T05:51:27.871Z,3.87
2019-05-03T05:53:59.336Z,4.53
2019-05-03T05:56:54.839Z,3.63
2019-05-03T05:59:29.067Z,3.13
2019-05-03T06:02:01.951Z,4.33
2019-05-03T06:04:34.803Z,4.23
2019-05-03T06:07:25.776Z,3.50
2019-05-03T06:10:21.199Z,4.83
2019-05-03T06:13:05.255Z,4.63
2019-05-03T06:15:49.684Z,4.63
2019-05-03T06:18:25.077Z,6.60
2019-05-03T06:21:04.620Z,5.03
2019-05-03T06:23:39.956Z,5.20
2019-05-03T06:26:26.804Z,5.53
2019-05-03T06:28:57.249Z,5.07
2019-05-03T06:31:38.868Z,4.83
2019-05-03T06:34:08.690Z,4.73
2019-05-03T06:36:40.180Z,5.00
2019-05-03T06:39:11.375Z,4.23
2019-05-03T06:41:41.021Z,5.73
2019-05-03T06:44:14.312Z,5.67
2019-05-03T06:46:45.753Z,4.23
2019-05-03T06:49:16.661Z,4.83
2019-05-03T06:51:49.747Z,3.30
2019-05-03T06:54:20.643Z,7.67
2019-05-03T06:56:48.085Z,3.33
2019-05-03T06:59:24.816Z,4.20
2019-05-03T07:02:16.944Z,3.97
2019-05-03T07:04:48.203Z,4.90
2019-05-03T07:07:44.310Z,5.00
2019-05-03T07:10:29.605Z,7.23
2019-05-03T07:13:01.812Z,4.03
2019-05-03T07:15:31.205Z,3.53
2019-05-03T07:18:05.571Z,3.57
2019-05-03T07:20:46.935Z,4.00
2019-05-03T07:23:16.224Z,5.57
2019-05-03T07:25:45.730Z,4.20
2019-05-03T07:28:15.515Z,3.40
2019-05-03T07:30:46.610Z,5.27
2019-05-03T07:33:29.280Z,3.97
2019-05-03T07:35:58.648Z,4.30
2019-05-03T07:38:30.876Z,3.23
2019-05-03T07:41:00.217Z,2.53
2019-05-03T07:43:30.802Z,4.20
2019-05-03T07:46:00.118Z,2.93
2019-05-03T07:48:32.797Z,1.93
2019-05-03T07:51:02.168Z,2.90
2019-05-03T07:53:34.914Z,3.50
2019-05-03T07:56:15.574Z,3.47
2019-05-03T07:59:00.050Z,3.77
2019-05-03T08:01:28.398Z,2.47
2019-05-03T08:03:59.700Z,2.97
2019-05-03T08:06:29.714Z,4.23
2019-05-03T08:09:01.340Z,2.00
2019-05-03T08:11:30.704Z,2.57
2019-05-03T08:14:01.448Z,2.07
2019-05-03T08:16:30.757Z,1.90
2019-05-03T08:19:00.241Z,2.13
2019-05-03T08:21:30.192Z,3.70
2019-05-03T08:23:59.852Z,2.83
2019-05-03T08:26:29.209Z,1.73
2019-05-03T08:29:14.829Z,3.13
2019-05-03T08:32:05.830Z,2.37
2019-05-03T08:34:53.166Z,4.20
2019-05-03T08:37:28.878Z,2.77
2019-05-03T08:39:58.409Z,3.73
2019-05-03T08:42:27.718Z,2.67
2019-05-03T08:45:20.619Z,4.30
2019-05-03T08:47:49.786Z,2.20
2019-05-03T08:50:21.674Z,4.80
2019-05-03T08:52:51.199Z,2.23
2019-05-03T08:55:21.795Z,3.20
2019-05-03T08:57:54.956Z,2.03
2019-05-03T09:00:27.586Z,2.57
2019-05-03T09:02:57.004Z,2.40
2019-05-03T09:05:26.306Z,3.43
2019-05-03T09:07:55.722Z,2.37
2019-05-03T09:10:36.500Z,3.07
2019-05-03T09:13:10.723Z,2.43
2019-05-03T09:15:40.691Z,4.13
2019-05-03T09:18:10.024Z,4.13
2019-05-03T09:20:39.403Z,2.10
2019-05-03T09:23:10.097Z,2.93
2019-05-03T09:25:39.547Z,3.07
2019-05-03T09:28:10.664Z,1.93
2019-05-03T09:30:40.399Z,3.53
2019-05-03T09:33:09.736Z,2.03
2019-05-03T09:35:39.307Z,2.47
2019-05-03T09:38:08.712Z,2.53
2019-05-03T09:40:40.538Z,1.60
2019-05-03T09:43:09.885Z,3.60
2019-05-03T09:45:41.948Z,2.67
2019-05-03T09:48:11.235Z,3.87
2019-05-03T09:50:40.621Z,1.83
2019-05-03T09:53:09.974Z,1.93
2019-05-03T09:55:40.353Z,2.30
2019-05-03T09:58:09.734Z,2.47
2019-05-03T10:00:39.094Z,2.63
2019-05-03T10:03:08.506Z,1.67
2019-05-03T10:05:37.910Z,2.70
2019-05-03T10:08:07.404Z,4.20
2019-05-03T10:10:54.339Z,3.00
2019-05-03T10:13:27.185Z,1.73
2019-05-03T10:15:56.296Z,3.27
2019-05-03T10:18:25.674Z,1.63
2019-05-03T10:20:56.134Z,1.53
2019-05-03T10:23:38.648Z,1.80
2019-05-03T10:26:08.633Z,1.97
2019-05-03T10:28:38.502Z,2.57
2019-05-03T10:31:08.120Z,4.47
2019-05-03T10:34:05.937Z,1.83
2019-05-03T10:36:35.714Z,3.73
2019-05-03T10:39:06.926Z,2.57
2019-05-03T10:41:36.400Z,2.63
2019-05-03T10:44:06.078Z,3.43
2019-05-03T10:46:37.733Z,3.03
2019-05-03T10:49:07.105Z,3.67
2019-05-03T10:51:40.941Z,3.17
2019-05-03T10:54:10.321Z,2.60
2019-05-03T10:57:01.381Z,2.50
2019-05-03T10:59:35.604Z,2.50
2019-05-03T11:02:18.303Z,2.23
2019-05-03T11:04:50.394Z,2.30
2019-05-03T11:07:20.136Z,3.10
2019-05-03T11:09:55.130Z,3.43
2019-05-03T11:12:25.460Z,4.30
2019-05-03T11:14:54.964Z,1.93
2019-05-03T11:17:25.613Z,2.43
2019-05-03T11:19:56.931Z,1.87
2019-05-03T11:22:26.337Z,1.70
2019-05-03T11:24:55.641Z,3.43
2019-05-03T11:27:42.173Z,4.47
2019-05-03T11:30:15.783Z,2.30
2019-05-03T11:33:07.729Z,3.17
2019-05-03T11:35:58.830Z,1.70
2019-05-03T11:38:30.597Z,3.10
2019-05-03T11:41:01.056Z,2.57
2019-05-03T11:43:30.489Z,1.67
2019-05-03T11:45:59.839Z,2.17
2019-05-03T11:48:29.274Z,2.70
2019-05-03T11:50:58.712Z,2.13
2019-05-03T11:53:28.808Z,2.80
2019-05-03T11:55:59.185Z,1.97
2019-05-03T11:58:29.910Z,2.73
2019-05-03T12:01:16.010Z,2.77
2019-05-03T12:03:45.149Z,5.93
2019-05-03T12:06:15.641Z,3.87
2019-05-03T12:08:45.896Z,3.10
2019-05-03T12:11:15.377Z,1.67
2019-05-03T12:13:45.643Z,5.00
2019-05-03T12:16:24.054Z,3.50
2019-05-03T12:18:53.200Z,3.00
2019-05-03T12:21:22.077Z,2.77
2019-05-03T12:23:52.805Z,2.80
2019-05-03T12:26:24.967Z,2.90
2019-05-03T12:28:53.688Z,3.10
2019-05-03T12:31:36.308Z,3.07
2019-05-03T12:33:55.235Z,3.37
2019-05-03T12:36:25.731Z,3.90
2019-05-03T12:38:55.583Z,3.13
2019-05-03T12:41:25.443Z,3.03
2019-05-03T12:43:55.322Z,2.80
2019-05-03T12:46:26.261Z,2.60
2019-05-03T12:48:55.770Z,5.27
2019-05-03T12:51:29.088Z,3.07
2019-05-03T12:53:58.468Z,4.87
2019-05-03T12:56:32.677Z,2.30
2019-05-03T12:59:05.799Z,4.57
2019-05-03T13:01:55.544Z,3.47
2019-05-03T13:04:29.682Z,3.93
2019-05-03T13:07:11.527Z,4.20
2019-05-03T13:09:42.053Z,3.20
2019-05-03T13:12:14.718Z,3.23
2019-05-03T13:14:45.926Z,5.23
2019-05-03T13:17:19.114Z,4.33
2019-05-03T13:19:51.200Z,3.20
2019-05-03T13:22:20.698Z,2.50
2019-05-03T13:24:50.078Z,2.17
2019-05-03T13:27:19.717Z,2.37
2019-05-03T13:29:49.080Z,2.87
2019-05-03T13:32:19.891Z,4.20
2019-05-03T13:34:49.264Z,4.07
2019-05-03T13:37:20.167Z,4.03
2019-05-03T13:39:49.606Z,3.20
2019-05-03T13:42:20.843Z,5.00
2019-05-03T13:44:50.768Z,2.47
2019-05-03T13:47:20.571Z,4.73
2019-05-03T13:49:49.993Z,3.03
2019-05-03T13:52:19.416Z,2.83
2019-05-03T13:54:50.619Z,3.43
2019-05-03T13:57:24.618Z,4.10
2019-05-03T13:59:55.442Z,5.27
2019-05-03T14:02:24.964Z,3.57
2019-05-03T14:04:55.834Z,2.53
2019-05-03T14:07:25.672Z,3.23
2019-05-03T14:09:55.673Z,7.10
2019-05-03T14:12:25.242Z,2.80
2019-05-03T14:14:55.874Z,3.37
2019-05-03T14:17:28.495Z,3.50
2019-05-03T14:20:19.613Z,1.90
2019-05-03T14:22:50.133Z,3.03
2019-05-03T14:25:19.481Z,4.30
2019-05-03T14:27:48.957Z,2.93
2019-05-03T14:30:19.619Z,4.47
2019-05-03T14:32:49.059Z,3.77
2019-05-03T14:35:19.471Z,3.80
2019-05-03T14:37:48.857Z,4.53
2019-05-03T14:40:18.212Z,2.80
2019-05-03T14:42:47.575Z,4.00
2019-05-03T14:45:17.331Z,6.53
2019-05-03T14:47:50.120Z,3.73
2019-05-03T14:50:20.740Z,4.17
2019-05-03T14:52:50.113Z,3.10
2019-05-03T14:55:41.533Z,5.03
2019-05-03T14:58:28.279Z,4.60
2019-05-03T15:01:04.788Z,5.30
2019-05-03T15:03:35.416Z,5.47
2019-05-03T15:06:05.295Z,3.50
2019-05-03T15:08:35.082Z,3.53
2019-05-03T15:11:05.824Z,4.80
2019-05-03T15:13:35.132Z,3.37
2019-05-03T15:16:05.271Z,4.03
2019-05-03T15:18:34.956Z,7.07
2019-05-03T15:21:09.663Z,2.57
2019-05-03T15:23:39.011Z,4.23
2019-05-03T15:26:08.666Z,2.97
2019-05-03T15:28:38.044Z,2.37
2019-05-03T15:31:07.465Z,4.67
2019-05-03T15:33:36.799Z,4.20
2019-05-03T15:36:09.794Z,3.50
2019-05-03T15:38:39.101Z,3.07
2019-05-03T15:41:09.871Z,3.17
2019-05-03T15:44:05.270Z,3.33
2019-05-03T15:46:45.018Z,3.10
2019-05-03T15:49:20.467Z,3.30
2019-05-03T15:51:54.029Z,3.00
2019-05-03T15:54:28.043Z,3.50
2019-05-03T15:56:57.612Z,2.23
2019-05-03T15:59:27.557Z,5.03
2019-05-03T16:02:00.032Z,3.23
2019-05-03T16:04:31.781Z,3.63
2019-05-03T16:07:02.255Z,3.07
2019-05-03T16:09:35.246Z,4.20
2019-05-03T16:12:05.477Z,5.47
2019-05-03T16:14:37.896Z,3.93
2019-05-03T16:17:07.312Z,4.17
2019-05-03T16:19:38.937Z,4.17
2019-05-03T16:22:08.385Z,4.47
2019-05-03T16:24:40.267Z,5.93
2019-05-03T16:27:18.672Z,5.33
2019-05-03T16:29:49.614Z,3.40
2019-05-03T16:32:19.161Z,2.60
2019-05-03T16:34:48.551Z,4.00
2019-05-03T16:37:22.045Z,4.87
2019-05-03T16:39:54.654Z,3.83
2019-05-03T16:42:24.566Z,3.70
2019-05-03T16:44:55.009Z,5.77
2019-05-03T16:47:25.015Z,4.83
2019-05-03T16:49:58.693Z,4.20
2019-05-03T16:52:25.738Z,3.60
2019-05-03T16:54:58.044Z,4.50
2019-05-03T16:57:29.059Z,2.57
2019-05-03T16:59:58.698Z,6.33
2019-05-03T17:02:28.073Z,6.30
2019-05-03T17:05:07.405Z,7.93
2019-05-03T17:07:45.192Z,4.20
2019-05-03T17:10:34.828Z,4.60
2019-05-03T17:13:05.533Z,4.03
2019-05-03T17:15:35.370Z,4.33
2019-05-03T17:18:06.556Z,5.40
2019-05-03T17:20:37.933Z,4.37
2019-05-03T17:23:07.273Z,6.27
2019-05-03T17:25:39.154Z,3.80
2019-05-03T17:28:09.444Z,3.60
2019-05-03T17:30:38.876Z,4.53
2019-05-03T17:33:08.330Z,3.53
2019-05-03T17:35:37.759Z,5.63
2019-05-03T17:41:16.822Z,4.63
2019-05-03T17:44:16.292Z,4.40
2019-05-03T17:46:56.855Z,6.83
2019-05-03T17:49:37.719Z,3.47
2019-05-03T17:52:40.412Z,4.57
2019-05-03T17:55:40.440Z,4.90
2019-05-03T17:58:40.616Z,4.23
2019-05-03T18:01:40.815Z,4.90
2019-05-03T18:10:28.051Z,5.83
2019-05-03T18:13:11.857Z,4.80
2019-05-03T18:15:54.367Z,4.17
2019-05-03T18:18:35.768Z,3.83
2019-05-03T18:21:18.799Z,4.60
2019-05-03T18:24:00.112Z,5.07
2019-05-03T18:26:41.729Z,3.97
2019-05-03T18:29:25.135Z,4.53
2019-05-03T18:32:05.868Z,8.17
2019-05-03T18:34:47.201Z,5.53
2019-05-03T18:37:27.835Z,7.23
2019-05-03T18:40:11.226Z,6.97
2019-05-03T18:42:55.466Z,3.00
2019-05-03T18:48:41.435Z,4.87
2019-05-03T18:51:22.872Z,7.03
2019-05-03T18:54:07.046Z,5.80
2019-05-03T18:56:46.829Z,4.50
2019-05-03T18:59:28.836Z,4.33
2019-05-03T19:02:09.982Z,4.27
2019-05-03T19:04:54.604Z,4.30
2019-05-03T19:07:58.234Z,4.87
2019-05-03T19:10:44.671Z,7.43
2019-05-03T19:13:29.157Z,4.33
2019-05-03T19:16:29.307Z,4.77
2019-05-03T19:19:10.627Z,4.70
2019-05-03T19:21:52.729Z,6.40
2019-05-03T19:24:35.104Z,6.07
2019-05-03T19:27:16.234Z,5.07
2019-05-03T19:29:56.888Z,3.47
2019-05-03T19:32:38.311Z,5.73
2019-05-03T19:35:21.267Z,6.83
2019-05-03T19:38:02.393Z,4.33
2019-05-03T19:40:45.327Z,7.10
2019-05-03T19:43:27.103Z,5.83
2019-05-03T19:46:10.537Z,4.87
2019-05-03T19:48:51.655Z,4.97
2019-05-03T19:51:34.437Z,5.43
2019-05-03T19:54:15.081Z,5.77
2019-05-03T19:56:57.326Z,7.10
2019-05-03T19:59:57.100Z,7.90
2019-05-03T20:05:56.673Z,4.83
2019-05-03T20:08:40.651Z,4.73
2019-05-03T20:11:22.123Z,9.23
2019-05-03T20:14:04.743Z,5.53
2019-05-03T20:16:46.185Z,5.87
2019-05-03T20:19:27.596Z,6.30
2019-05-03T20:22:09.304Z,6.23
2019-05-03T20:24:50.988Z,6.67
2019-05-03T20:27:32.181Z,6.17
2019-05-03T20:30:15.007Z,5.70
2019-05-03T20:32:57.194Z,6.83
2019-05-03T20:35:38.145Z,8.40
2019-05-03T20:38:28.376Z,7.13
2019-05-03T20:41:09.414Z,6.63
2019-05-03T20:44:14.381Z,8.47
2019-05-03T20:47:04.434Z,6.50
2019-05-03T20:49:47.890Z,6.57
2019-05-03T20:52:30.169Z,7.50
2019-05-03T20:55:11.651Z,5.57
2019-05-03T20:57:52.268Z,6.73
2019-05-03T21:00:34.492Z,9.03
2019-05-03T21:03:15.627Z,8.03
2019-05-03T21:06:02.347Z,8.47
2019-05-03T21:08:50.520Z,7.40
2019-05-03T21:11:25.606Z,7.60
2019-05-03T21:14:17.499Z,8.80
2019-05-03T21:17:04.591Z,7.23
2019-05-03T21:22:59.372Z,7.63
2019-05-03T21:26:03.664Z,8.97
2019-05-03T21:28:29.256Z,7.43
2019-05-03T21:31:11.144Z,8.83
2019-05-03T21:33:52.417Z,8.57
2019-05-03T21:36:34.875Z,6.97
2019-05-03T21:39:15.733Z,5.50
2019-05-03T21:41:58.866Z,7.87
2019-05-03T21:44:40.488Z,5.70
2019-05-03T21:47:41.037Z,4.90
2019-05-03T21:50:24.866Z,5.87
2019-05-03T21:53:06.326Z,6.63
2019-05-03T21:55:48.064Z,5.60
2019-05-03T21:58:31.424Z,7.07
2019-05-03T22:01:15.514Z,8.30
2019-05-03T22:03:57.212Z,7.57
2019-05-03T22:06:38.059Z,6.77
2019-05-03T22:09:18.769Z,6.30
2019-05-03T22:12:00.339Z,6.87
2019-05-03T22:14:47.098Z,7.20
2019-05-03T22:17:35.478Z,8.37
2019-05-03T22:21:01.873Z,9.23
2019-05-03T22:24:09.663Z,8.17
2019-05-03T22:29:59.585Z,6.70
2019-05-03T22:32:48.807Z,8.70
2019-05-03T22:35:37.269Z,7.20
2019-05-03T22:41:21.107Z,8.07
2019-05-03T22:44:09.524Z,10.20
2019-05-03T22:46:57.912Z,10.70
2019-05-03T22:49:46.369Z,6.67
2019-05-03T22:55:28.736Z,9.93
2019-05-03T23:01:30.196Z,9.83
2019-05-03T23:04:18.600Z,13.13
2019-05-03T23:07:07.043Z,12.83
2019-05-03T23:13:24.751Z,11.67
2019-05-03T23:16:14.425Z,10.63
2019-05-03T23:18:56.204Z,11.63
2019-05-03T23:21:56.762Z,13.63
2019-05-03T23:24:38.214Z,13.57
2019-05-03T23:27:18.740Z,13.40
2019-05-03T23:29:59.488Z,12.00
2019-05-03T23:32:40.807Z,11.37
2019-05-03T23:35:21.420Z,11.63
2019-05-03T23:38:07.355Z,14.63
2019-05-03T23:40:45.370Z,14.93
2019-05-03T23:43:26.103Z,11.53
2019-05-03T23:46:06.746Z,13.17
2019-05-03T23:48:51.056Z,12.17
2019-05-03T23:54:54.896Z,10.20
2019-05-03T23:57:38.138Z,11.83
